Time;durP1;ratioP1;P1;durP2;ratioP2;P2;SDS_P1;SDS_P2;PMS_P1;PMS_P2;Temp;Humidity;BMP_temperature;BMP_pressure;BME280_temperature;BME280_humidity;BME280_pressure;Samples;Min_cycle;Max_cycle;Signal;HPM_P1;HPM_P2
2023/11/12 00:02:42;;;;;;;22.10;16.40;;;;;;;5.93;86.12;97625.13;226868;1272;22534;-79
2023/11/12 00:08:03;;;;;;;18.70;14.30;;;;;;;5.92;86.20;97627.79;226847;1274;22536;-79
2023/11/12 00:13:06;;;;;;;16.40;12.00;;;;;;;5.89;86.22;97631.05;227136;1273;22560;-79
2023/11/12 00:18:11;;;;;;;12.00;10.00;;;;;;;5.85;85.77;97636.92;227111;1274;22536;-79
2023/11/12 00:23:14;;;;;;;9.70;8.50;;;;;;;5.80;86.10;97642.11;226916;1273;22543;-79
2023/11/12 00:28:30;;;;;;;9.30;8.30;;;;;;;5.74;85.61;97639.70;226950;1275;22559;-79
2023/11/12 00:33:34;;;;;;;12.00;8.80;;;;;;;5.70;86.31;97648.16;227120;1272;24915;-79
2023/11/12 00:38:46;;;;;;;9.60;7.30;;;;;;;5.65;86.02;97648.23;226920;1269;23049;-79
2023/11/12 00:43:49;;;;;;;8.60;6.70;;;;;;;5.62;85.88;97651.75;226828;1274;22576;-79
2023/11/12 00:48:52;;;;;;;7.20;6.00;;;;;;;5.60;85.79;97652.25;226911;1273;22540;-78
2023/11/12 00:53:56;;;;;;;6.80;5.70;;;;;;;5.55;85.86;97652.46;227121;1272;25411;-80
2023/11/12 00:58:59;;;;;;;6.70;5.90;;;;;;;5.52;86.09;97659.23;226880;1274;22557;-78
2023/11/12 01:04:05;;;;;;;7.50;6.20;;;;;;;5.49;85.51;97664.23;226908;1275;22545;-78
2023/11/12 01:09:14;;;;;;;7.50;6.00;;;;;;;5.46;85.92;97666.55;226860;1269;22535;-78
2023/11/12 01:14:17;;;;;;;8.30;6.70;;;;;;;5.45;85.76;97670.33;227046;1267;22540;-79
2023/11/12 01:19:21;;;;;;;7.50;6.60;;;;;;;5.45;85.81;97675.92;226825;1275;22746;-79
2023/11/12 01:24:27;;;;;;;8.00;6.50;;;;;;;5.44;85.83;97676.13;226793;1274;25400;-79
2023/11/12 01:29:30;;;;;;;7.50;6.30;;;;;;;5.41;86.04;97677.73;226869;1273;22540;-78
2023/11/12 01:34:33;;;;;;;7.90;5.60;;;;;;;5.37;86.13;97678.07;226810;1273;22540;-78
2023/11/12 01:39:38;;;;;;;6.00;5.30;;;;;;;5.30;85.85;97681.95;226866;1273;22852;-78
2023/11/12 01:44:44;;;;;;;5.10;4.40;;;;;;;5.27;85.89;97687.27;227077;1267;22543;-79
2023/11/12 01:49:50;;;;;;;4.80;4.30;;;;;;;5.24;85.84;97689.17;226735;1273;260924;-79
2023/11/12 01:54:55;;;;;;;4.00;3.40;;;;;;;5.22;86.29;97690.80;227040;1272;22551;-80
2023/11/12 02:00:16;;;;;;;3.20;2.90;;;;;;;5.19;85.61;97695.17;227051;1274;22534;-80
2023/11/12 02:05:36;;;;;;;3.80;3.10;;;;;;;5.16;85.71;97699.96;227092;1272;22532;-80
2023/11/12 02:10:39;;;;;;;;;;;;;;;5.13;85.97;97696.41;226836;1272;22584;-79
2023/11/12 02:15:47;;;;;;;2.90;2.50;;;;;;;5.10;86.03;97698.02;227027;1274;22628;-79
2023/11/12 02:20:51;;;;;;;2.70;2.50;;;;;;;5.06;86.15;97697.71;226894;1269;22564;-79
2023/11/12 02:25:57;;;;;;;2.90;2.60;;;;;;;5.02;85.86;97695.27;226896;1273;22548;-79
2023/11/12 02:31:09;;;;;;;2.60;2.30;;;;;;;5.02;85.95;97702.70;227109;1274;22540;-79
2023/11/12 02:36:11;;;;;;;4.30;2.00;;;;;;;5.03;86.13;97703.56;226873;1273;22541;-80
2023/11/12 02:41:14;;;;;;;2.30;2.10;;;;;;;5.01;86.10;97711.44;226847;1274;24190;-79
2023/11/12 02:46:16;;;;;;;2.40;2.20;;;;;;;5.00;86.20;97709.88;226972;1272;23176;-79
2023/11/12 02:51:19;;;;;;;2.20;2.00;;;;;;;4.98;85.97;97711.83;226881;1273;22561;-79
2023/11/12 02:56:22;;;;;;;2.60;2.40;;;;;;;4.96;86.01;97711.12;226939;1272;23307;-78
2023/11/12 03:01:25;;;;;;;2.40;2.20;;;;;;;4.96;85.93;97714.48;227039;1269;22558;-80
2023/11/12 03:06:31;;;;;;;3.10;2.30;;;;;;;4.95;86.36;97715.48;226808;1273;22536;-80
2023/11/12 03:11:37;;;;;;;2.80;2.60;;;;;;;4.93;86.27;97722.36;226945;1274;22579;-78
2023/11/12 03:16:43;;;;;;;2.70;2.40;;;;;;;4.91;86.40;97722.24;226844;1273;22540;-79
2023/11/12 03:21:52;;;;;;;2.40;2.20;;;;;;;4.89;86.34;97725.14;226904;1274;22524;-79
2023/11/12 03:26:55;;;;;;;2.60;2.40;;;;;;;4.87;86.17;97724.59;227012;1272;22558;-79
2023/11/12 03:31:58;;;;;;;2.30;2.20;;;;;;;4.88;86.84;97731.65;226950;1273;24239;-80
2023/11/12 03:37:01;;;;;;;3.10;2.60;;;;;;;4.86;86.31;97736.41;226799;1274;22560;-79
2023/11/12 03:42:05;;;;;;;3.00;2.70;;;;;;;4.86;86.71;97738.54;226849;1273;22567;-79
2023/11/12 03:47:09;;;;;;;2.90;2.60;;;;;;;4.85;86.62;97735.27;227085;1269;22537;-79
2023/11/12 03:52:11;;;;;;;3.50;3.00;;;;;;;4.84;86.85;97739.10;227002;1256;22536;-79
2023/11/12 03:57:18;;;;;;;3.20;2.90;;;;;;;4.85;86.58;97743.31;226852;1272;24225;-80
2023/11/12 04:02:21;;;;;;;4.40;3.60;;;;;;;4.85;86.70;97739.27;226913;1251;22536;-79
2023/11/12 04:07:25;;;;;;;4.10;3.50;;;;;;;4.87;86.87;97741.51;226913;1274;22547;-79
2023/11/12 04:12:32;;;;;;;3.90;3.60;;;;;;;4.88;86.94;97744.93;226855;1274;22564;-79
2023/11/12 04:17:36;;;;;;;4.90;4.00;;;;;;;4.86;87.02;97739.06;227056;1274;25322;-79
2023/11/12 04:22:46;;;;;;;5.10;3.90;;;;;;;4.83;86.87;97738.48;227028;1269;22546;-79
2023/11/12 04:27:53;;;;;;;5.00;4.60;;;;;;;4.85;87.26;97742.83;226839;1275;22533;-80
2023/11/12 04:32:56;;;;;;;6.80;5.00;;;;;;;4.85;87.44;97747.11;226999;1274;22554;-79
2023/11/12 04:38:00;;;;;;;6.00;5.20;;;;;;;4.85;87.17;97746.36;226812;1273;22637;-79
2023/11/12 04:43:03;;;;;;;7.90;6.50;;;;;;;4.84;87.25;97752.75;226759;1275;22566;-79
2023/11/12 04:48:05;;;;;;;6.50;5.50;;;;;;;4.85;87.34;97755.42;226668;1275;24847;-79
2023/11/12 04:53:08;;;;;;;7.60;6.40;;;;;;;4.85;87.34;97758.56;227027;1272;22536;-79
2023/11/12 04:58:12;;;;;;;9.00;6.80;;;;;;;4.85;87.38;97758.50;226840;1275;22561;-79
2023/11/12 05:03:15;;;;;;;7.30;6.00;;;;;;;4.87;87.57;97766.54;226801;1275;22521;-79
2023/11/12 05:08:19;;;;;;;8.10;6.70;;;;;;;4.87;87.61;97770.64;226767;1275;22680;-79
2023/11/12 05:13:22;;;;;;;7.70;6.80;;;;;;;4.90;87.50;97773.66;226836;1275;22608;-78
2023/11/12 05:18:26;;;;;;;8.20;7.10;;;;;;;4.92;87.50;97777.95;226722;1271;23491;-79
2023/11/12 05:23:29;;;;;;;8.50;7.30;;;;;;;4.95;87.76;97784.08;226758;1275;22565;-78
2023/11/12 05:28:31;;;;;;;8.50;7.60;;;;;;;4.98;87.52;97790.89;226755;1275;23625;-78
2023/11/12 05:33:36;;;;;;;7.70;6.70;;;;;;;5.00;87.57;97799.39;226976;1272;22603;-78
2023/11/12 05:38:39;;;;;;;8.40;7.20;;;;;;;5.02;87.62;97802.29;226850;1257;22568;-79
2023/11/12 05:43:42;;;;;;;9.00;7.10;;;;;;;5.04;87.56;97808.89;226996;1273;22543;-79
2023/11/12 05:48:47;;;;;;;9.30;7.60;;;;;;;5.06;87.53;97813.69;226972;1272;22667;-79
2023/11/12 05:53:50;;;;;;;8.50;7.60;;;;;;;5.08;87.35;97817.84;227072;1266;25226;-79
2023/11/12 05:59:14;;;;;;;9.20;8.20;;;;;;;5.09;87.47;97822.90;226841;1274;22546;-79
2023/11/12 06:04:16;;;;;;;7.80;7.00;;;;;;;5.13;87.73;97832.62;226857;1270;22529;-79
2023/11/12 06:09:19;;;;;;;8.70;6.60;;;;;;;5.13;87.54;97833.77;226929;1272;22549;-79
2023/11/12 06:14:27;;;;;;;9.50;6.90;;;;;;;5.14;87.41;97842.36;226984;1275;22534;-79
2023/11/12 06:19:39;;;;;;;8.60;7.20;;;;;;;5.17;87.50;97852.92;226944;1274;23579;-79
2023/11/12 06:24:46;;;;;;;8.10;6.80;;;;;;;5.18;87.50;97854.33;227020;1263;22587;-79
2023/11/12 06:29:50;;;;;;;8.40;6.70;;;;;;;5.18;87.59;97862.04;226953;1274;22574;-79
2023/11/12 06:34:53;;;;;;;8.10;6.20;;;;;;;5.16;87.21;97866.92;226904;1275;22549;-81
2023/11/12 06:39:59;;;;;;;8.50;6.40;;;;;;;5.15;86.99;97872.10;226867;1269;22536;-79
2023/11/12 06:45:02;;;;;;;7.90;6.40;;;;;;;5.16;87.29;97872.20;227049;1275;22549;-79
2023/11/12 06:50:07;;;;;;;7.60;6.10;;;;;;;5.17;87.34;97878.30;226895;1269;22536;-80
2023/11/12 06:55:12;;;;;;;8.40;6.70;;;;;;;5.19;87.22;97884.04;226984;1275;22537;-79
2023/11/12 07:00:17;;;;;;;10.00;7.80;;;;;;;5.21;87.13;97893.38;226969;1272;22628;-79
2023/11/12 07:05:20;;;;;;;8.20;7.10;;;;;;;5.21;87.08;97898.94;227026;1272;22563;-79
2023/11/12 07:10:23;;;;;;;9.30;8.00;;;;;;;5.26;87.36;97898.79;227005;1272;23013;-79
2023/11/12 07:15:26;;;;;;;9.60;7.80;;;;;;;5.29;86.99;97900.05;226934;1270;23253;-79
2023/11/12 07:20:32;;;;;;;12.30;7.80;;;;;;;5.35;87.50;97903.67;226979;1251;22566;-79
2023/11/12 07:25:35;;;;;;;9.10;7.80;;;;;;;5.35;86.73;97913.55;226975;1253;23688;-79
2023/11/12 07:30:38;;;;;;;7.60;6.90;;;;;;;5.38;86.72;97916.63;227011;1266;22624;-78
2023/11/12 07:35:48;;;;;;;7.20;6.50;;;;;;;5.43;87.00;97919.92;226911;1274;22545;-79
2023/11/12 07:41:03;;;;;;;7.60;6.70;;;;;;;5.52;87.24;97923.19;226844;1274;22534;-79
2023/11/12 07:46:13;;;;;;;8.50;7.00;;;;;;;5.64;87.15;97928.02;226909;1273;22541;-80
2023/11/12 07:51:16;;;;;;;7.40;6.60;;;;;;;5.76;87.00;97933.20;226826;1272;22541;-78
2023/11/12 07:56:24;;;;;;;9.70;6.80;;;;;;;5.91;87.36;97937.38;227039;1269;25990;-79
2023/11/12 08:01:41;;;;;;;8.40;6.90;;;;;;;6.03;86.82;97937.19;226935;1274;22524;-80
2023/11/12 08:06:49;;;;;;;6.60;5.90;;;;;;;6.09;86.53;97942.23;226815;1275;22548;-79
2023/11/12 08:11:52;;;;;;;7.80;6.50;;;;;;;6.13;86.32;97942.94;226859;1266;22546;-79
2023/11/12 08:17:01;;;;;;;6.90;6.20;;;;;;;6.18;86.24;97944.63;227017;1274;22528;-79
2023/11/12 08:22:04;;;;;;;6.60;5.40;;;;;;;6.22;85.21;97952.88;226857;1273;22584;-79
2023/11/12 08:27:07;;;;;;;7.60;6.10;;;;;;;6.29;85.59;97955.02;226991;1275;22658;-79
2023/11/12 08:32:13;;;;;;;6.80;5.70;;;;;;;6.43;84.85;97960.94;227000;1272;22560;-80
2023/11/12 08:37:16;;;;;;;6.20;5.60;;;;;;;6.59;85.26;97966.65;226848;1273;22533;-80
2023/11/12 08:42:19;;;;;;;6.30;5.70;;;;;;;6.81;85.02;97969.09;226982;1272;22547;-79
2023/11/12 08:47:34;;;;;;;6.80;6.10;;;;;;;6.88;84.10;97975.66;226847;1275;22536;-80
2023/11/12 08:52:38;;;;;;;6.20;5.60;;;;;;;6.89;83.70;97979.85;226857;1272;22536;-80
2023/11/12 08:57:41;;;;;;;7.10;6.10;;;;;;;6.90;83.53;97987.33;226924;1270;22532;-80
2023/11/12 09:02:44;;;;;;;8.20;6.80;;;;;;;6.92;83.20;97985.70;227015;1272;22542;-79
2023/11/12 09:07:54;;;;;;;6.70;5.80;;;;;;;6.98;83.36;97990.81;226812;1274;22537;-80
2023/11/12 09:12:56;;;;;;;6.60;5.30;;;;;;;7.02;82.93;97999.87;226981;1272;22553;-79
2023/11/12 09:17:59;;;;;;;6.70;5.70;;;;;;;7.03;82.32;98003.20;226951;1272;22555;-80
2023/11/12 09:23:03;;;;;;;5.20;4.70;;;;;;;7.04;82.66;97998.81;226920;1272;22524;-79
2023/11/12 09:28:07;;;;;;;6.30;4.80;;;;;;;7.12;82.90;98000.84;226902;1269;24828;-79
2023/11/12 09:33:12;;;;;;;5.50;4.90;;;;;;;7.20;82.88;97999.48;226961;1256;22553;-78
2023/11/12 09:38:18;;;;;;;7.20;5.00;;;;;;;7.27;82.57;97993.41;226976;1272;22612;-79
2023/11/12 09:43:25;;;;;;;5.80;5.00;;;;;;;7.41;83.02;97990.02;226742;1275;25404;-80
2023/11/12 09:48:38;;;;;;;6.70;4.80;;;;;;;7.61;83.02;97980.75;226975;1272;22660;-79
2023/11/12 09:53:47;;;;;;;5.30;4.30;;;;;;;7.72;82.43;97979.80;226923;1272;22547;-79
2023/11/12 09:58:50;;;;;;;4.80;4.30;;;;;;;7.83;82.13;97979.52;226810;1272;22550;-80
2023/11/12 10:03:55;;;;;;;4.50;4.10;;;;;;;8.10;81.97;97978.30;226875;1272;22559;-79
2023/11/12 10:09:00;;;;;;;4.40;3.70;;;;;;;8.32;81.05;97975.27;226803;1274;24358;-80
2023/11/12 10:14:14;;;;;;;4.00;3.60;;;;;;;8.50;80.71;97975.64;226993;1272;22544;-80
2023/11/12 10:19:17;;;;;;;3.80;3.30;;;;;;;8.50;79.94;97975.87;226888;1272;25942;-79
2023/11/12 10:24:20;;;;;;;4.30;3.60;;;;;;;8.54;79.35;97979.55;226960;1272;22543;-79
2023/11/12 10:29:27;;;;;;;4.90;3.70;;;;;;;8.42;78.52;97983.37;226966;1271;25404;-79
2023/11/12 10:34:40;;;;;;;5.40;4.30;;;;;;;8.38;78.62;97987.16;226820;1265;24225;-80
2023/11/12 10:39:44;;;;;;;4.40;4.00;;;;;;;8.38;78.71;97987.07;226749;1274;22585;-79
2023/11/12 10:44:53;;;;;;;4.40;3.80;;;;;;;8.49;78.95;97979.44;226971;1272;22527;-80
2023/11/12 10:49:56;;;;;;;4.90;3.60;;;;;;;8.63;78.83;97977.84;226902;1273;22530;-80
2023/11/12 10:55:05;;;;;;;4.70;4.10;;;;;;;8.66;77.61;97983.25;226836;1274;22638;-81
2023/11/12 11:00:10;;;;;;;7.30;4.50;;;;;;;8.63;77.62;97974.55;226916;1275;22673;-79
2023/11/12 11:05:13;;;;;;;4.70;3.60;;;;;;;8.68;77.84;97970.88;226964;1272;22561;-80
2023/11/12 11:10:16;;;;;;;5.30;4.20;;;;;;;8.73;77.41;97972.77;226856;1275;22558;-79
2023/11/12 11:16:00;;;;;;;4.40;4.00;;;;;;;8.74;77.08;97974.83;226962;1272;23267;-80
2023/11/12 11:21:12;;;;;;;4.60;4.20;;;;;;;8.85;77.00;97975.00;225840;1278;22530;-80
2023/11/12 11:26:28;;;;;;;4.90;4.40;;;;;;;8.98;76.72;97968.30;226798;1274;22524;-80
2023/11/12 11:31:38;;;;;;;4.60;3.70;;;;;;;9.10;76.49;97971.91;226962;1274;22566;-79
2023/11/12 11:36:56;;;;;;;4.30;3.90;;;;;;;9.25;76.61;97974.52;226899;1275;23292;-80
2023/11/12 11:42:26;;;;;;;4.30;3.70;;;;;;;9.38;76.11;97974.98;226964;1272;22544;-80
2023/11/12 11:47:30;;;;;;;4.70;4.20;;;;;;;9.44;75.78;97971.75;226856;1275;22536;-80
2023/11/12 11:52:33;;;;;;;4.70;3.60;;;;;;;9.45;75.82;97968.27;226813;1275;22544;-80
2023/11/12 11:58:04;;;;;;;3.90;3.60;;;;;;;9.44;75.28;97969.73;226885;1274;22861;-79
2023/11/12 12:03:17;;;;;;;5.80;3.50;;;;;;;9.37;75.36;97969.66;226997;1272;22540;-81
2023/11/12 12:08:20;;;;;;;4.90;4.10;;;;;;;9.42;75.84;97964.60;226973;1272;22536;-79
2023/11/12 12:13:26;;;;;;;5.10;4.20;;;;;;;9.37;75.66;97968.82;226906;1274;22528;-80
2023/11/12 12:18:31;;;;;;;5.00;3.80;;;;;;;9.27;75.22;97974.84;226998;1275;22640;-79
2023/11/12 12:23:34;;;;;;;4.80;4.00;;;;;;;9.13;74.69;97974.33;226850;1274;22539;-79
2023/11/12 12:28:41;;;;;;;7.10;5.10;;;;;;;9.12;74.98;97970.98;227007;1274;22536;-79
2023/11/12 12:34:04;;;;;;;4.90;4.40;;;;;;;9.15;75.24;97975.02;226866;1272;24246;-80
2023/11/12 12:39:10;;;;;;;5.10;4.50;;;;;;;9.19;75.47;97974.41;227072;1272;22617;-80
2023/11/12 12:44:23;;;;;;;4.90;4.40;;;;;;;9.19;75.15;97976.89;227053;1272;22538;-79
2023/11/12 12:49:44;;;;;;;5.90;5.20;;;;;;;9.04;74.76;97977.49;227017;1272;22537;-79
2023/11/12 12:55:06;;;;;;;7.80;6.00;;;;;;;8.81;74.75;97981.02;227006;1260;22552;-79
2023/11/12 13:00:11;;;;;;;8.30;6.20;;;;;;;8.66;74.82;97987.87;227008;1272;22532;-79
2023/11/12 13:05:22;;;;;;;9.30;6.40;;;;;;;8.57;74.56;97985.69;226846;1275;22535;-79
2023/11/12 13:10:31;;;;;;;7.80;6.50;;;;;;;8.52;75.30;97991.19;227051;1274;22573;-80
2023/11/12 13:15:34;;;;;;;9.00;6.50;;;;;;;8.51;75.65;97989.20;226985;1275;22556;-79
2023/11/12 13:20:38;;;;;;;7.60;5.90;;;;;;;8.58;74.80;97995.86;226979;1275;22558;-80
2023/11/12 13:25:41;;;;;;;7.60;5.90;;;;;;;8.63;75.19;97992.23;226746;1275;22584;-79
2023/11/12 13:30:46;;;;;;;9.10;6.20;;;;;;;8.71;75.18;97990.86;226993;1271;22653;-79
2023/11/12 13:35:59;;;;;;;8.00;5.80;;;;;;;8.75;74.92;97995.41;226913;1275;22506;-79
2023/11/12 13:41:03;;;;;;;7.80;5.80;;;;;;;8.85;74.59;98000.60;227059;1275;22536;-80
2023/11/12 13:46:05;;;;;;;5.90;4.70;;;;;;;8.98;74.33;98004.83;226694;1266;254014;-81
2023/11/12 13:51:11;;;;;;;7.00;5.40;;;;;;;9.07;74.39;98004.50;226778;1275;25442;-80
2023/11/12 13:56:17;;;;;;;6.70;5.60;;;;;;;9.16;74.47;98008.71;226937;1275;22883;-80
2023/11/12 14:01:27;;;;;;;7.90;5.40;;;;;;;9.18;74.02;98012.14;226880;1275;22607;-80
2023/11/12 14:06:30;;;;;;;8.80;6.00;;;;;;;9.13;73.70;98020.61;226779;1275;24247;-80
2023/11/12 14:11:36;;;;;;;10.70;6.80;;;;;;;9.03;73.71;98023.54;227076;1271;22545;-79
2023/11/12 14:16:39;;;;;;;8.50;6.70;;;;;;;8.93;73.88;98034.67;226942;1272;24223;-82
2023/11/12 14:21:56;;;;;;;10.30;7.40;;;;;;;8.71;73.81;98038.49;226940;1273;22599;-79
2023/11/12 14:27:03;;;;;;;16.00;9.80;;;;;;;8.38;73.53;98043.70;227023;1271;22540;-79
2023/11/12 14:32:06;;;;;;;12.30;8.90;;;;;;;7.99;74.18;98048.36;226924;1275;22680;-80
2023/11/12 14:37:09;;;;;;;12.10;8.20;;;;;;;7.66;74.50;98056.80;227023;1273;22540;-79
2023/11/12 14:42:17;;;;;;;10.50;7.90;;;;;;;7.38;75.01;98059.05;226910;1275;22633;-80
2023/11/12 14:47:22;;;;;;;10.50;7.60;;;;;;;7.14;75.32;98073.88;226869;1275;22574;-79
2023/11/12 14:52:24;;;;;;;13.20;7.80;;;;;;;6.97;75.94;98080.98;226986;1274;22550;-80
2023/11/12 14:57:28;;;;;;;14.10;9.40;;;;;;;6.84;75.99;98074.66;226632;1275;24235;-80
2023/11/12 15:02:32;;;;;;;13.00;9.30;;;;;;;6.77;76.89;98078.13;226906;1273;25312;-80
2023/11/12 15:07:40;;;;;;;13.70;9.50;;;;;;;6.73;77.43;98083.77;226875;1275;22563;-79
2023/11/12 15:12:44;;;;;;;12.90;9.20;;;;;;;6.74;77.51;98086.65;226844;1275;25404;-79
2023/11/12 15:17:47;;;;;;;12.20;8.30;;;;;;;6.79;77.95;98088.59;226977;1275;22553;-79
2023/11/12 15:22:50;;;;;;;12.20;9.40;;;;;;;6.85;78.00;98088.05;226985;1272;24669;-79
2023/11/12 15:27:54;;;;;;;14.10;10.00;;;;;;;6.90;78.46;98091.96;226880;1275;22550;-79
2023/11/12 15:32:57;;;;;;;11.30;9.80;;;;;;;6.88;79.12;98090.51;227000;1272;22539;-79
2023/11/12 15:38:00;;;;;;;14.00;9.90;;;;;;;6.80;79.48;98093.52;226846;1273;22537;-79
2023/11/12 15:43:02;;;;;;;11.60;9.10;;;;;;;6.72;79.47;98100.02;226894;1275;22549;-78
2023/11/12 15:48:06;;;;;;;11.60;8.70;;;;;;;6.62;79.95;98105.23;226821;1275;22544;-79
2023/11/12 15:53:12;;;;;;;9.60;7.20;;;;;;;6.48;80.42;98103.36;226905;1275;22531;-79
2023/11/12 15:58:17;;;;;;;7.90;6.00;;;;;;;6.40;80.70;98106.60;226724;1274;22556;-78
2023/11/12 16:03:21;;;;;;;8.10;7.20;;;;;;;6.32;81.14;98106.70;226982;1275;22552;-79
2023/11/12 16:08:24;;;;;;;11.70;9.20;;;;;;;6.23;81.36;98108.77;227023;1272;22563;-80
2023/11/12 16:13:27;;;;;;;12.00;10.00;;;;;;;6.15;81.85;98104.92;226653;1275;22591;-80
2023/11/12 16:18:30;;;;;;;16.20;12.50;;;;;;;6.11;82.13;98108.95;226900;1272;22543;-79
2023/11/12 16:23:34;;;;;;;16.40;13.80;;;;;;;6.06;82.61;98114.29;226912;1275;22560;-79
2023/11/12 16:28:38;;;;;;;15.70;11.50;;;;;;;6.03;82.56;98116.20;227012;1274;22536;-80
2023/11/12 16:33:42;;;;;;;16.60;12.80;;;;;;;6.01;82.17;98123.33;226480;1275;22549;-80
2023/11/12 16:38:51;;;;;;;16.80;14.30;;;;;;;6.00;82.37;98125.59;226762;1275;22555;-79
2023/11/12 16:43:54;;;;;;;18.00;14.50;;;;;;;5.97;82.76;98125.05;226663;1254;22563;-79
2023/11/12 16:48:59;;;;;;;17.50;13.10;;;;;;;5.93;82.64;98127.82;226703;1275;22568;-79
2023/11/12 16:54:04;;;;;;;18.00;12.70;;;;;;;5.89;82.44;98131.92;226595;1275;23316;-80
2023/11/12 16:59:07;;;;;;;16.20;13.40;;;;;;;5.84;82.62;98134.69;226747;1275;22550;-78
2023/11/12 17:04:10;;;;;;;18.50;14.20;;;;;;;5.81;82.97;98142.30;226691;1275;22634;-79
2023/11/12 17:09:17;;;;;;;18.60;14.30;;;;;;;5.77;82.84;98149.59;226663;1273;22566;-78
2023/11/12 17:14:25;;;;;;;21.00;14.80;;;;;;;5.74;82.79;98158.58;226668;1275;22619;-79
2023/11/12 17:19:27;;;;;;;20.60;15.70;;;;;;;5.73;82.90;98164.48;226687;1275;22535;-78
2023/11/12 17:24:32;;;;;;;20.90;16.40;;;;;;;5.76;82.87;98172.52;226842;1275;22647;-79
2023/11/12 17:29:35;;;;;;;60.50;42.70;;;;;;;5.81;83.10;98179.80;226644;1276;22552;-79
2023/11/12 17:34:41;;;;;;;19.40;14.70;;;;;;;5.86;83.08;98186.28;227023;1273;23267;-81
2023/11/12 17:39:44;;;;;;;21.00;15.60;;;;;;;5.89;83.41;98188.89;226862;1275;22552;-80
2023/11/12 17:44:49;;;;;;;18.60;13.10;;;;;;;5.90;82.82;98190.23;226940;1255;22542;-80
2023/11/12 17:49:55;;;;;;;18.80;13.40;;;;;;;5.87;83.18;98179.37;226963;1274;22537;-79
2023/11/12 17:54:59;;;;;;;14.20;11.50;;;;;;;5.82;83.03;98178.79;226893;1273;22571;-79
2023/11/12 18:00:03;;;;;;;16.90;12.20;;;;;;;5.76;83.04;98185.50;226806;1275;22643;-78
2023/11/12 18:05:12;;;;;;;15.40;12.30;;;;;;;5.70;83.31;98195.40;227054;1273;22496;-80
2023/11/12 18:10:19;;;;;;;18.10;13.20;;;;;;;5.63;83.29;98196.29;227008;1267;22540;-79
2023/11/12 18:15:21;;;;;;;16.70;12.00;;;;;;;5.58;83.52;98193.90;226791;1267;22585;-79
2023/11/12 18:20:31;;;;;;;13.50;10.70;;;;;;;5.55;83.52;98197.44;226812;1275;22560;-78
2023/11/12 18:25:38;;;;;;;14.00;9.70;;;;;;;5.46;83.22;98195.81;226995;1273;22578;-79
2023/11/12 18:30:41;;;;;;;11.00;8.90;;;;;;;5.37;83.34;98193.48;226965;1273;22547;-79
2023/11/12 18:35:50;;;;;;;9.80;8.70;;;;;;;5.28;83.43;98200.92;226659;1276;22563;-79
2023/11/12 18:40:56;;;;;;;10.80;8.80;;;;;;;5.23;83.54;98209.33;226852;1275;22574;-78
2023/11/12 18:46:13;;;;;;;11.00;8.80;;;;;;;5.17;83.47;98212.15;227062;1274;22547;-79
2023/11/12 18:51:22;;;;;;;15.90;10.20;;;;;;;5.07;83.48;98212.73;226746;1270;22594;-79
2023/11/12 18:56:28;;;;;;;16.70;10.40;;;;;;;4.92;83.33;98219.39;226925;1253;24200;-80
2023/11/12 19:01:36;;;;;;;15.60;11.80;;;;;;;4.75;83.31;98227.91;226844;1272;22530;-80
2023/11/12 19:06:42;;;;;;;15.40;11.60;;;;;;;4.60;84.01;98229.98;226927;1270;22557;-79
2023/11/12 19:11:45;;;;;;;17.70;11.90;;;;;;;4.47;83.96;98228.21;226832;1274;22549;-79
2023/11/12 19:16:49;;;;;;;20.60;12.20;;;;;;;4.33;84.21;98235.34;226908;1272;24311;-81
2023/11/12 19:21:56;;;;;;;19.60;13.00;;;;;;;4.20;84.45;98239.65;226999;1274;22543;-79
2023/11/12 19:27:00;;;;;;;19.30;13.80;;;;;;;4.09;84.36;98241.02;226755;1274;22534;-78
2023/11/12 19:32:06;;;;;;;18.40;13.60;;;;;;;3.99;84.76;98246.98;227027;1272;22540;-79
2023/11/12 19:37:12;;;;;;;20.80;15.20;;;;;;;3.87;84.55;98250.59;227014;1273;22560;-79
2023/11/12 19:42:17;;;;;;;34.30;21.00;;;;;;;3.80;85.08;98253.09;226792;1273;23295;-79
2023/11/12 19:47:22;;;;;;;32.50;23.60;;;;;;;3.73;85.24;98253.61;226838;1270;25436;-78
2023/11/12 19:52:25;;;;;;;40.00;28.20;;;;;;;3.65;85.22;98252.24;226703;1274;22587;-78
2023/11/12 19:57:27;;;;;;;44.10;30.80;;;;;;;3.57;85.32;98253.44;226805;1275;23354;-78
2023/11/12 20:02:33;;;;;;;46.50;32.30;;;;;;;3.49;85.52;98253.67;227019;1274;22559;-78
2023/11/12 20:07:45;;;;;;;54.80;36.70;;;;;;;3.45;85.62;98258.61;226940;1269;22540;-79
2023/11/12 20:12:58;;;;;;;47.30;33.00;;;;;;;3.44;85.94;98255.27;227035;1272;22540;-79
2023/11/12 20:18:14;;;;;;;46.90;33.20;;;;;;;3.46;85.96;98260.71;227056;1271;22524;-79
2023/11/12 20:23:17;;;;;;;51.30;33.90;;;;;;;3.50;86.28;98262.63;227028;1275;22559;-79
2023/11/12 20:28:33;;;;;;;45.20;32.00;;;;;;;3.56;86.34;98261.83;226860;1257;22904;-79
2023/11/12 20:33:38;;;;;;;44.60;30.10;;;;;;;3.63;86.60;98266.92;226887;1272;22572;-80
2023/11/12 20:38:45;;;;;;;44.40;29.90;;;;;;;3.70;86.36;98272.41;226919;1273;22543;-79
2023/11/12 20:43:48;;;;;;;40.90;29.50;;;;;;;3.77;86.46;98273.94;226929;1273;22540;-79
2023/11/12 20:48:56;;;;;;;42.00;29.60;;;;;;;3.83;86.49;98271.03;227086;1274;25066;-78
2023/11/12 20:53:59;;;;;;;48.00;33.40;;;;;;;3.90;86.59;98268.81;226853;1273;22551;-78
2023/11/12 20:59:03;;;;;;;50.00;34.20;;;;;;;3.96;86.36;98271.70;226989;1274;22552;-79
2023/11/12 21:04:07;;;;;;;51.30;33.40;;;;;;;4.01;86.53;98270.82;226838;1274;22537;-79
2023/11/12 21:09:15;;;;;;;47.40;32.80;;;;;;;4.06;86.49;98265.18;226828;1274;23601;-78
2023/11/12 21:14:20;;;;;;;47.80;31.10;;;;;;;4.11;86.69;98264.98;226814;1273;22550;-78
2023/11/12 21:19:25;;;;;;;41.90;28.70;;;;;;;4.18;86.78;98265.95;226854;1272;22560;-78
2023/11/12 21:24:29;;;;;;;37.80;26.20;;;;;;;4.26;86.64;98258.40;226891;1273;22550;-79
2023/11/12 21:29:35;;;;;;;41.70;28.30;;;;;;;4.32;86.63;98257.88;226827;1275;22542;-79
2023/11/12 21:34:49;;;;;;;36.20;24.60;;;;;;;4.39;86.58;98260.48;227074;1270;22553;-79
2023/11/12 21:39:53;;;;;;;35.20;26.50;;;;;;;4.45;86.43;98266.13;227025;1272;22547;-79
2023/11/12 21:44:56;;;;;;;36.80;25.70;;;;;;;4.50;86.71;98261.42;226874;1269;22597;-78
2023/11/12 21:49:58;;;;;;;40.00;24.70;;;;;;;4.53;86.52;98267.52;226985;1273;22563;-79
2023/11/12 21:55:03;;;;;;;42.40;25.90;;;;;;;4.57;86.39;98268.22;226790;1275;24225;-78
2023/11/12 22:00:15;;;;;;;42.90;26.30;;;;;;;4.60;86.35;98272.16;226958;1273;22490;-79
2023/11/12 22:05:18;;;;;;;38.80;24.20;;;;;;;4.64;86.52;98278.09;226833;1274;23540;-79
2023/11/12 22:10:22;;;;;;;39.30;23.10;;;;;;;4.66;86.19;98275.96;226955;1274;22530;-79
2023/11/12 22:15:26;;;;;;;34.10;21.30;;;;;;;4.69;86.41;98276.98;227022;1274;23104;-79
2023/11/12 22:20:29;;;;;;;29.70;19.30;;;;;;;4.72;86.15;98274.38;226958;1275;22637;-78
2023/11/12 22:25:35;;;;;;;27.80;18.60;;;;;;;4.76;85.94;98276.65;227065;1274;22547;-79
2023/11/12 22:30:38;;;;;;;29.80;19.00;;;;;;;4.77;85.96;98279.26;227043;1272;22586;-80
2023/11/12 22:35:41;;;;;;;31.10;20.80;;;;;;;4.77;85.85;98290.41;226842;1270;22559;-79
2023/11/12 22:40:43;;;;;;;33.80;22.40;;;;;;;4.76;85.78;98295.73;226848;1274;22543;-78
2023/11/12 22:45:45;;;;;;;38.90;23.80;;;;;;;4.76;85.86;98299.51;227034;1272;24643;-78
2023/11/12 22:50:48;;;;;;;34.70;22.90;;;;;;;4.73;85.74;98303.42;227068;1272;22538;-79
2023/11/12 22:55:51;;;;;;;33.30;22.40;;;;;;;4.70;85.87;98306.20;226768;1270;22545;-79
2023/11/12 23:00:59;;;;;;;34.30;23.00;;;;;;;4.69;86.00;98306.30;227030;1271;24272;-79
2023/11/12 23:06:04;;;;;;;32.50;22.10;;;;;;;4.70;86.25;98309.95;226989;1272;22544;-78
2023/11/12 23:11:07;;;;;;;32.10;20.70;;;;;;;4.71;85.91;98311.72;226843;1275;22537;-80
2023/11/12 23:16:11;;;;;;;29.10;19.10;;;;;;;4.71;86.00;98314.11;227053;1272;22551;-78
2023/11/12 23:21:13;;;;;;;29.00;19.10;;;;;;;4.73;85.95;98321.41;226858;1273;22540;-79
2023/11/12 23:26:16;;;;;;;25.80;17.40;;;;;;;4.75;85.68;98323.98;227063;1272;23338;-79
2023/11/12 23:31:22;;;;;;;25.80;17.00;;;;;;;4.76;85.75;98324.02;226783;1273;22542;-79
2023/11/12 23:36:25;;;;;;;25.00;17.10;;;;;;;4.77;85.50;98316.64;226781;1275;22539;-78
2023/11/12 23:41:28;;;;;;;23.50;16.00;;;;;;;4.74;85.88;98314.83;227019;1272;22562;-79
2023/11/12 23:46:33;;;;;;;26.40;16.10;;;;;;;4.69;85.64;98314.36;226996;1274;22561;-79